Time;durP1;ratioP1;P1;durP2;ratioP2;P2;SDS_P1;SDS_P2;PMS_P1;PMS_P2;Temp;Humidity;BMP_temperature;BMP_pressure;BME280_temperature;BME280_humidity;BME280_pressure;Samples;Min_cycle;Max_cycle;Signal;HPM_P1;HPM_P2
2023/12/11 00:01:17;;;;;;;3.30;1.40;;;12.50;99.90;;;;;;4970023;28;20176;-63
2023/12/11 00:03:43;;;;;;;3.67;1.10;;;12.50;99.90;;;;;;4975807;28;20263;-64
2023/12/11 00:06:09;;;;;;;4.50;1.30;;;12.40;99.90;;;;;;4975133;28;20222;-64
2023/12/11 00:08:37;;;;;;;4.25;1.50;;;12.40;99.90;;;;;;4974914;28;20184;-64
2023/12/11 00:11:03;;;;;;;3.40;1.00;;;12.40;99.90;;;;;;4975463;28;20214;-65
2023/12/11 00:13:31;;;;;;;6.18;1.33;;;12.30;99.90;;;;;;4975223;28;20183;-65
2023/12/11 00:15:57;;;;;;;7.35;1.75;;;12.30;99.90;;;;;;4973369;28;20179;-63
2023/12/11 00:18:23;;;;;;;6.07;1.42;;;12.30;99.90;;;;;;4974394;28;20211;-63
2023/12/11 00:20:50;;;;;;;5.60;1.33;;;12.30;99.90;;;;;;4967958;28;20169;-65
2023/12/11 00:23:16;;;;;;;5.60;1.70;;;12.30;99.90;;;;;;4964222;28;20196;-64
2023/12/11 00:25:49;;;;;;;8.50;2.03;;;12.30;99.90;;;;;;4973930;28;20179;-64
2023/12/11 00:28:17;;;;;;;8.20;1.98;;;12.30;99.90;;;;;;4975143;28;20187;-64
2023/12/11 00:30:57;;;;;;;7.28;1.75;;;12.40;99.90;;;;;;4974957;28;20172;-66
2023/12/11 00:33:23;;;;;;;9.48;1.90;;;12.40;99.90;;;;;;4971873;28;20270;-65
2023/12/11 00:35:48;;;;;;;7.15;1.70;;;12.30;99.90;;;;;;4987554;28;20484;-64
2023/12/11 00:38:16;;;;;;;8.15;1.80;;;12.40;99.90;;;;;;4976827;28;20199;-66
2023/12/11 00:40:42;;;;;;;6.15;1.48;;;12.40;99.90;;;;;;4975158;28;20183;-65
2023/12/11 00:43:07;;;;;;;6.03;1.70;;;12.40;99.90;;;;;;4972804;28;20224;-65
2023/12/11 00:45:35;;;;;;;5.53;1.52;;;12.40;99.90;;;;;;4974813;28;20320;-64
2023/12/11 00:48:03;;;;;;;6.05;1.63;;;12.40;99.90;;;;;;4974666;28;20195;-64
2023/12/11 00:50:31;;;;;;;5.00;1.67;;;12.50;99.90;;;;;;4971287;28;20186;-66
2023/12/11 00:52:57;;;;;;;3.83;1.35;;;12.50;99.90;;;;;;4984065;28;20493;-65
2023/12/11 00:55:23;;;;;;;5.43;1.60;;;12.50;99.90;;;;;;4971829;28;20219;-64
2023/12/11 00:57:53;;;;;;;8.77;1.80;;;12.50;99.90;;;;;;4974274;28;20203;-66
2023/12/11 01:00:21;;;;;;;8.07;1.60;;;12.60;99.90;;;;;;4969405;28;20359;-64
2023/12/11 01:02:50;;;;;;;7.40;1.98;;;12.60;99.90;;;;;;4974262;28;20180;-65
2023/12/11 01:05:15;;;;;;;6.47;1.60;;;12.60;99.90;;;;;;4973923;28;20168;-65
2023/12/11 01:07:43;;;;;;;6.78;1.60;;;12.60;99.90;;;;;;4973899;28;20227;-63
2023/12/11 01:10:11;;;;;;;7.15;1.77;;;12.60;99.90;;;;;;4973738;28;20196;-65
2023/12/11 01:12:54;;;;;;;6.70;1.98;;;12.60;99.90;;;;;;4974604;28;20180;-63
2023/12/11 01:15:19;;;;;;;5.22;1.50;;;12.60;99.90;;;;;;4973146;28;20273;-64
2023/12/11 01:17:47;;;;;;;6.30;1.65;;;12.60;99.90;;;;;;4973816;28;20298;-64
2023/12/11 01:20:15;;;;;;;7.85;1.67;;;12.60;99.90;;;;;;4974404;28;20190;-65
2023/12/11 01:22:41;;;;;;;7.55;1.67;;;12.60;99.90;;;;;;4972591;28;20184;-66
2023/12/11 01:25:08;;;;;;;6.10;1.50;;;12.60;99.90;;;;;;4986593;28;20191;-65
2023/12/11 01:27:37;;;;;;;5.82;1.60;;;12.60;99.90;;;;;;4974680;28;20184;-65
2023/12/11 01:30:03;;;;;;;6.35;1.88;;;12.60;99.90;;;;;;4987059;28;20219;-67
2023/12/11 01:32:29;;;;;;;5.45;1.67;;;12.50;99.90;;;;;;4971114;28;20268;-71
2023/12/11 01:34:55;;;;;;;5.65;1.73;;;12.50;99.90;;;;;;4979283;28;20234;-70
2023/12/11 01:37:20;;;;;;;8.00;2.38;;;12.50;99.90;;;;;;4974470;28;20195;-70
2023/12/11 01:39:46;;;;;;;6.10;1.83;;;12.50;99.90;;;;;;4974215;28;20180;-70
2023/12/11 01:42:12;;;;;;;6.78;1.80;;;12.50;99.90;;;;;;4974077;28;20172;-67
2023/12/11 01:44:37;;;;;;;8.40;1.65;;;12.50;99.90;;;;;;4970855;28;20202;-70
2023/12/11 01:47:08;;;;;;;8.18;2.03;;;12.50;99.90;;;;;;4974268;28;20185;-67
2023/12/11 01:49:40;;;;;;;7.00;1.92;;;12.50;99.90;;;;;;4978017;28;20192;-69
2023/12/11 01:52:08;;;;;;;8.93;1.80;;;12.50;99.90;;;;;;4968234;28;20219;-69
2023/12/11 01:54:35;;;;;;;6.05;1.58;;;12.50;99.90;;;;;;4973988;28;20503;-70
2023/12/11 01:57:02;;;;;;;6.53;1.67;;;12.50;99.90;;;;;;4996988;28;20196;-67
2023/12/11 01:59:31;;;;;;;5.22;1.70;;;12.50;99.90;;;;;;4972802;28;20176;-69
2023/12/11 02:01:57;;;;;;;7.40;1.95;;;12.40;99.90;;;;;;4968064;28;20169;-71
2023/12/11 02:04:23;;;;;;;9.95;2.30;;;12.40;99.90;;;;;;4972257;28;20181;-67
2023/12/11 02:06:48;;;;;;;6.97;1.40;;;12.40;99.90;;;;;;4972285;28;20222;-68
2023/12/11 02:09:17;;;;;;;3.33;1.20;;;12.50;99.90;;;;;;4964811;28;20191;-70
2023/12/11 02:11:45;;;;;;;3.45;1.33;;;12.40;99.90;;;;;;5004223;28;20180;-66
2023/12/11 02:14:10;;;;;;;6.55;1.60;;;12.40;99.90;;;;;;4977922;28;20187;-70
2023/12/11 02:16:39;;;;;;;5.95;1.50;;;12.40;99.90;;;;;;4975745;28;20173;-69
2023/12/11 02:19:06;;;;;;;4.20;1.50;;;12.40;99.90;;;;;;4973210;28;20168;-70
2023/12/11 02:21:35;;;;;;;4.65;1.35;;;12.40;99.90;;;;;;4989921;28;20223;-69
2023/12/11 02:24:00;;;;;;;4.10;1.60;;;12.40;99.90;;;;;;4958532;29;20188;-70
2023/12/11 02:26:28;;;;;;;7.22;1.75;;;12.40;99.90;;;;;;4980691;28;20168;-65
2023/12/11 02:28:54;;;;;;;7.43;1.73;;;12.40;99.90;;;;;;4974658;28;20177;-70
2023/12/11 02:31:24;;;;;;;6.32;1.60;;;12.40;99.90;;;;;;4978035;28;20240;-70
2023/12/11 02:33:50;;;;;;;7.20;1.80;;;12.40;99.90;;;;;;4976738;28;20384;-69
2023/12/11 02:36:16;;;;;;;4.50;1.60;;;12.40;99.90;;;;;;4990180;28;20179;-70
2023/12/11 02:38:44;;;;;;;5.97;1.40;;;12.40;99.90;;;;;;4976933;28;20202;-68
2023/12/11 02:41:09;;;;;;;5.97;1.40;;;12.40;99.90;;;;;;4977481;28;20224;-70
2023/12/11 02:43:35;;;;;;;6.65;1.70;;;12.50;99.90;;;;;;4977135;28;20198;-66
2023/12/11 02:46:02;;;;;;;6.55;1.80;;;12.40;99.90;;;;;;4976137;28;20187;-70
2023/12/11 02:48:30;;;;;;;9.52;1.55;;;12.40;99.90;;;;;;4977023;28;20204;-70
2023/12/11 02:50:56;;;;;;;5.82;1.67;;;12.40;99.90;;;;;;4975697;28;20275;-69
2023/12/11 02:53:22;;;;;;;5.25;1.60;;;12.50;99.90;;;;;;4977041;28;20283;-67
2023/12/11 02:55:47;;;;;;;4.53;1.55;;;12.50;99.90;;;;;;4975283;28;20408;-69
2023/12/11 02:58:13;;;;;;;7.43;1.70;;;12.40;99.90;;;;;;4983065;28;21905;-71
2023/12/11 03:00:39;;;;;;;6.25;1.67;;;12.50;99.90;;;;;;4976588;28;20196;-69
2023/12/11 03:03:07;;;;;;;7.82;1.88;;;12.50;99.90;;;;;;4976452;28;20322;-69
2023/12/11 03:05:33;;;;;;;6.07;1.65;;;12.50;99.90;;;;;;4974689;28;20173;-71
2023/12/11 03:08:01;;;;;;;8.80;1.60;;;12.50;99.90;;;;;;4976716;28;20172;-70
2023/12/11 03:10:27;;;;;;;7.65;1.75;;;12.50;99.90;;;;;;4976049;28;20208;-71
2023/12/11 03:12:52;;;;;;;7.03;2.10;;;12.50;99.90;;;;;;4973358;28;20188;-69
2023/12/11 03:15:23;;;;;;;5.75;1.50;;;12.60;99.90;;;;;;4983328;28;20199;-70
2023/12/11 03:17:48;;;;;;;5.93;1.52;;;12.50;99.90;;;;;;4974316;28;20207;-69
2023/12/11 03:20:14;;;;;;;5.72;1.63;;;12.50;99.90;;;;;;4972510;28;20260;-71
2023/12/11 03:22:40;;;;;;;5.55;1.52;;;12.50;99.90;;;;;;4976191;28;20196;-71
2023/12/11 03:25:06;;;;;;;5.28;1.52;;;12.50;99.90;;;;;;4973331;28;20223;-71
2023/12/11 03:27:31;;;;;;;4.82;1.67;;;12.60;99.90;;;;;;4975968;28;20215;-69
2023/12/11 03:29:57;;;;;;;6.05;1.48;;;12.50;99.90;;;;;;4976022;28;20214;-68
2023/12/11 03:32:23;;;;;;;8.40;1.73;;;12.50;99.90;;;;;;4974275;28;20207;-70
2023/12/11 03:34:48;;;;;;;9.75;2.03;;;12.50;99.90;;;;;;4975799;28;20226;-66
2023/12/11 03:37:14;;;;;;;9.10;1.90;;;12.50;99.90;;;;;;4976657;28;20242;-65
2023/12/11 03:39:42;;;;;;;9.65;2.10;;;12.50;99.90;;;;;;4976026;28;20190;-70
2023/12/11 03:42:10;;;;;;;8.35;2.05;;;12.40;99.90;;;;;;4976339;28;20239;-66
2023/12/11 03:44:35;;;;;;;7.40;1.90;;;12.40;99.90;;;;;;4976208;28;20180;-71
2023/12/11 03:47:01;;;;;;;6.47;2.10;;;12.40;99.90;;;;;;4975586;28;20270;-67
2023/12/11 03:49:29;;;;;;;5.72;1.40;;;12.40;99.90;;;;;;4972775;28;20262;-70
2023/12/11 03:51:54;;;;;;;6.18;1.65;;;12.50;99.90;;;;;;4990827;28;20203;-70
2023/12/11 03:54:21;;;;;;;7.93;1.73;;;12.50;99.90;;;;;;4979932;28;20191;-70
2023/12/11 03:56:46;;;;;;;5.97;1.63;;;12.50;99.90;;;;;;4976081;28;20279;-69
2023/12/11 03:59:12;;;;;;;5.97;1.83;;;12.50;99.90;;;;;;4975420;28;20287;-67
2023/12/11 04:01:40;;;;;;;7.50;1.73;;;12.50;99.90;;;;;;4974808;28;20183;-68
2023/12/11 04:04:08;;;;;;;6.28;1.95;;;12.50;99.90;;;;;;4975141;28;20176;-70
2023/12/11 04:06:39;;;;;;;8.40;1.75;;;12.50;99.90;;;;;;4975044;28;20272;-69
2023/12/11 04:09:05;;;;;;;8.30;2.08;;;12.50;99.90;;;;;;4973313;28;20334;-70
2023/12/11 04:11:34;;;;;;;9.35;2.28;;;12.50;99.90;;;;;;4973715;28;20173;-71
2023/12/11 04:14:00;;;;;;;7.45;1.83;;;12.50;99.90;;;;;;4975633;28;20208;-71
2023/12/11 04:16:26;;;;;;;9.45;2.00;;;12.60;99.90;;;;;;4976008;28;20194;-70
2023/12/11 04:18:56;;;;;;;6.82;1.80;;;12.60;99.90;;;;;;5006850;28;20204;-69
2023/12/11 04:21:22;;;;;;;9.35;1.95;;;12.60;99.90;;;;;;4974369;28;20195;-70
2023/12/11 04:23:48;;;;;;;6.25;1.70;;;12.60;99.90;;;;;;4975550;28;20187;-70
2023/12/11 04:26:14;;;;;;;8.45;2.05;;;12.60;99.90;;;;;;4976148;28;20432;-70
2023/12/11 04:28:39;;;;;;;8.00;2.40;;;12.70;99.90;;;;;;4976055;28;20204;-65
2023/12/11 04:31:05;;;;;;;7.30;2.33;;;12.70;99.90;;;;;;4975590;28;20248;-69
2023/12/11 04:33:32;;;;;;;11.13;2.30;;;12.70;99.90;;;;;;4974871;28;20176;-69
2023/12/11 04:36:01;;;;;;;7.75;1.85;;;12.70;99.90;;;;;;4974138;28;20204;-69
2023/12/11 04:38:26;;;;;;;6.22;1.90;;;12.70;99.90;;;;;;4976989;28;20449;-70
2023/12/11 04:40:52;;;;;;;7.22;2.15;;;12.70;99.90;;;;;;4990628;28;20173;-70
2023/12/11 04:43:17;;;;;;;7.90;1.85;;;12.70;99.90;;;;;;4972430;28;20180;-70
2023/12/11 04:45:43;;;;;;;6.93;1.83;;;12.70;99.90;;;;;;4966938;28;20180;-68
2023/12/11 04:48:09;;;;;;;7.85;1.80;;;12.70;99.90;;;;;;4975879;28;20184;-70
2023/12/11 04:50:35;;;;;;;8.05;1.92;;;12.70;99.90;;;;;;4969947;28;20219;-69
2023/12/11 04:53:05;;;;;;;7.65;1.80;;;12.70;99.90;;;;;;4971684;28;20287;-68
2023/12/11 04:55:30;;;;;;;9.07;2.25;;;12.70;99.90;;;;;;4974049;28;20183;-70
2023/12/11 04:57:58;;;;;;;7.47;1.75;;;12.70;99.90;;;;;;4973593;28;20195;-68
2023/12/11 05:00:24;;;;;;;6.97;1.90;;;12.80;99.90;;;;;;4974650;28;20187;-71
2023/12/11 05:02:49;;;;;;;7.70;1.50;;;12.80;99.90;;;;;;4970709;28;20200;-71
2023/12/11 05:05:16;;;;;;;8.35;1.95;;;12.80;99.90;;;;;;4972794;28;20183;-71
2023/12/11 05:07:44;;;;;;;7.57;1.90;;;12.80;99.90;;;;;;4979618;28;20172;-69
2023/12/11 05:10:12;;;;;;;8.57;1.70;;;12.90;99.90;;;;;;4995024;28;20183;-70
2023/12/11 05:12:40;;;;;;;6.90;1.92;;;12.90;99.90;;;;;;4982197;28;20259;-72
2023/12/11 05:15:06;;;;;;;8.23;2.00;;;12.90;99.90;;;;;;4971526;28;20211;-66
2023/12/11 05:17:34;;;;;;;8.20;1.90;;;13.00;99.90;;;;;;4989010;28;20290;-70
2023/12/11 05:20:00;;;;;;;8.35;1.83;;;13.00;99.90;;;;;;4975206;28;20180;-70
2023/12/11 05:22:25;;;;;;;7.45;2.05;;;13.00;99.90;;;;;;4974780;28;20291;-68
2023/12/11 05:24:51;;;;;;;7.15;1.90;;;13.00;99.90;;;;;;4975096;28;20176;-69
2023/12/11 05:27:19;;;;;;;6.70;1.85;;;13.10;99.90;;;;;;4975627;28;20187;-67
2023/12/11 05:29:45;;;;;;;4.57;1.23;;;13.00;99.90;;;;;;4975325;28;20195;-70
2023/12/11 05:32:10;;;;;;;7.95;1.90;;;13.10;99.90;;;;;;4977358;28;20180;-70
2023/12/11 05:34:36;;;;;;;8.63;1.80;;;13.00;99.90;;;;;;4974689;28;20208;-70
2023/12/11 05:37:02;;;;;;;7.82;2.05;;;13.00;99.90;;;;;;5005666;28;20184;-69
2023/12/11 05:39:30;;;;;;;7.78;1.77;;;13.00;99.90;;;;;;4967081;28;20206;-70
2023/12/11 05:41:56;;;;;;;5.30;1.60;;;13.00;99.90;;;;;;4972496;28;20192;-70
2023/12/11 05:44:21;;;;;;;7.20;1.40;;;13.00;99.90;;;;;;4961842;28;20185;-70
2023/12/11 05:46:47;;;;;;;7.93;1.73;;;13.00;99.90;;;;;;4972705;28;20192;-67
2023/12/11 05:49:12;;;;;;;6.22;1.55;;;13.00;99.90;;;;;;4978240;28;20172;-65
2023/12/11 05:51:41;;;;;;;4.20;1.42;;;13.00;99.90;;;;;;4989398;28;20177;-67
2023/12/11 05:54:06;;;;;;;4.40;1.30;;;13.00;99.90;;;;;;4978746;28;20211;-70
2023/12/11 05:56:33;;;;;;;5.60;1.92;;;13.00;99.90;;;;;;4975223;28;20203;-71
2023/12/11 05:58:58;;;;;;;7.53;1.80;;;13.00;99.90;;;;;;4977770;28;20254;-68
2023/12/11 06:01:27;;;;;;;9.23;1.73;;;13.00;99.90;;;;;;4977556;28;20207;-67
2023/12/11 06:03:52;;;;;;;9.02;1.70;;;13.00;99.90;;;;;;4992486;28;20182;-68
2023/12/11 06:06:23;;;;;;;7.22;1.90;;;13.00;99.90;;;;;;4995925;28;20183;-70
2023/12/11 06:08:51;;;;;;;9.15;2.00;;;13.00;99.90;;;;;;4977560;28;20168;-69
2023/12/11 06:11:19;;;;;;;6.93;1.40;;;13.00;99.90;;;;;;4978218;28;20266;-70
2023/12/11 06:13:44;;;;;;;9.38;1.88;;;13.10;99.90;;;;;;4978096;28;20203;-70
2023/12/11 06:16:13;;;;;;;4.43;1.50;;;13.10;99.90;;;;;;4977762;28;20211;-69
2023/12/11 06:18:41;;;;;;;5.93;1.88;;;13.10;99.90;;;;;;4977776;28;20192;-70
2023/12/11 06:21:16;;;;;;;8.70;1.88;;;13.10;99.90;;;;;;4977867;28;20215;-70
2023/12/11 06:23:42;;;;;;;7.30;2.03;;;13.10;99.90;;;;;;4977520;28;20179;-70
2023/12/11 06:26:07;;;;;;;6.07;1.70;;;13.10;99.90;;;;;;4977529;28;20321;-71
2023/12/11 06:28:35;;;;;;;6.57;1.83;;;13.10;99.90;;;;;;4977742;28;20266;-67
2023/12/11 06:31:01;;;;;;;8.23;1.95;;;13.10;99.90;;;;;;4977149;28;20219;-70
2023/12/11 06:33:26;;;;;;;7.15;1.60;;;13.10;99.90;;;;;;4977467;28;20242;-69
2023/12/11 06:35:54;;;;;;;4.88;2.03;;;13.00;99.90;;;;;;4977392;28;20196;-70
2023/12/11 06:38:20;;;;;;;7.80;1.60;;;12.90;99.90;;;;;;4977643;28;20204;-69
2023/12/11 06:40:47;;;;;;;8.77;1.85;;;12.80;99.90;;;;;;4977138;28;20202;-70
2023/12/11 06:43:15;;;;;;;7.25;1.60;;;12.70;99.90;;;;;;4977215;28;20254;-69
2023/12/11 06:45:46;;;;;;;6.55;1.88;;;12.60;99.90;;;;;;4976802;28;20191;-70
2023/12/11 06:48:16;;;;;;;8.98;1.92;;;12.60;99.90;;;;;;4958082;29;20204;-70
2023/12/11 06:50:42;;;;;;;7.10;2.60;;;12.50;99.90;;;;;;4973080;28;20192;-68
2023/12/11 06:53:12;;;;;;;5.97;1.77;;;12.40;99.90;;;;;;4976407;28;20183;-69
2023/12/11 06:55:37;;;;;;;7.70;2.00;;;12.30;99.90;;;;;;4976300;28;20196;-68
2023/12/11 06:58:03;;;;;;;5.60;1.70;;;12.30;99.90;;;;;;4975845;28;20281;-68
2023/12/11 07:00:31;;;;;;;6.10;1.50;;;12.30;99.90;;;;;;4976171;28;20179;-70
2023/12/11 07:02:57;;;;;;;5.68;1.90;;;12.30;99.90;;;;;;4976399;28;20172;-71
2023/12/11 07:05:23;;;;;;;6.05;1.40;;;12.20;99.90;;;;;;4976331;28;20237;-66
2023/12/11 07:07:48;;;;;;;7.07;1.40;;;12.20;99.90;;;;;;4976260;28;20203;-70
2023/12/11 07:10:14;;;;;;;4.30;1.35;;;12.20;99.90;;;;;;4975981;28;20240;-68
2023/12/11 07:12:45;;;;;;;7.25;1.52;;;12.20;99.90;;;;;;5009097;28;20180;-70
2023/12/11 07:15:16;;;;;;;5.05;1.55;;;12.20;99.90;;;;;;4969958;28;20203;-68
2023/12/11 07:17:42;;;;;;;5.82;1.73;;;12.20;99.90;;;;;;4976034;28;20202;-69
2023/12/11 07:20:11;;;;;;;11.30;2.17;;;12.20;99.90;;;;;;4976440;28;20255;-70
2023/12/11 07:22:37;;;;;;;4.70;1.30;;;12.20;99.90;;;;;;4976353;28;20180;-71
2023/12/11 07:25:05;;;;;;;7.00;1.70;;;12.20;99.90;;;;;;4976363;28;20307;-70
2023/12/11 07:27:33;;;;;;;7.90;1.90;;;12.20;99.90;;;;;;4975797;28;20210;-68
2023/12/11 07:29:59;;;;;;;5.57;1.50;;;12.20;99.90;;;;;;4976230;28;20168;-70
2023/12/11 07:32:25;;;;;;;4.40;1.30;;;12.20;99.90;;;;;;4976357;28;20179;-70
2023/12/11 07:34:51;;;;;;;6.75;1.90;;;12.20;99.90;;;;;;4975860;28;20214;-70
2023/12/11 07:37:17;;;;;;;6.88;1.42;;;12.30;99.90;;;;;;4976154;28;20200;-70
2023/12/11 07:39:42;;;;;;;5.70;1.33;;;12.20;99.90;;;;;;4976294;28;20304;-70
2023/12/11 07:42:08;;;;;;;3.30;1.05;;;12.30;99.90;;;;;;4975923;28;20200;-70
2023/12/11 07:44:34;;;;;;;4.82;1.20;;;12.30;99.90;;;;;;4975893;28;20192;-70
2023/12/11 07:47:02;;;;;;;4.18;1.20;;;12.30;99.90;;;;;;4975956;28;20172;-68
2023/12/11 07:49:28;;;;;;;4.75;1.50;;;12.30;99.90;;;;;;4975763;28;20172;-70
2023/12/11 07:51:53;;;;;;;4.95;1.23;;;12.40;99.90;;;;;;4975825;28;20230;-69
2023/12/11 07:54:22;;;;;;;4.60;1.20;;;12.40;99.90;;;;;;4975587;28;20256;-67
2023/12/11 07:56:49;;;;;;;3.63;1.00;;;12.40;99.90;;;;;;4975694;28;20251;-65
2023/12/11 07:59:17;;;;;;;4.35;1.20;;;12.40;99.90;;;;;;4975679;28;20238;-68
2023/12/11 08:01:45;;;;;;;3.15;1.10;;;12.40;99.90;;;;;;4975413;28;20200;-68
2023/12/11 08:04:12;;;;;;;4.53;1.23;;;12.40;99.90;;;;;;4975853;28;20379;-71
2023/12/11 08:06:46;;;;;;;2.35;1.05;;;12.50;99.90;;;;;;4975818;28;20168;-71
2023/12/11 08:09:13;;;;;;;4.28;1.45;;;12.50;99.90;;;;;;4975328;28;20208;-66
2023/12/11 08:11:39;;;;;;;3.65;1.23;;;12.50;99.90;;;;;;4975609;28;20184;-70
2023/12/11 08:14:05;;;;;;;5.32;1.30;;;12.50;99.90;;;;;;4975737;28;20187;-69
2023/12/11 08:16:31;;;;;;;4.60;1.70;;;12.50;99.90;;;;;;4975442;28;20176;-63
2023/12/11 08:18:57;;;;;;;7.03;1.67;;;12.60;99.90;;;;;;4975461;28;20227;-70
2023/12/11 08:21:23;;;;;;;5.50;1.70;;;12.60;99.90;;;;;;4975366;28;20176;-67
2023/12/11 08:23:50;;;;;;;7.85;1.80;;;12.60;99.90;;;;;;4975017;28;20230;-70
2023/12/11 08:26:19;;;;;;;7.10;1.65;;;12.70;99.90;;;;;;4975111;28;20183;-70
2023/12/11 08:28:49;;;;;;;6.82;1.60;;;12.70;99.90;;;;;;4975392;28;20195;-69
2023/12/11 08:31:15;;;;;;;7.65;1.65;;;12.70;99.90;;;;;;4975232;28;20168;-69
2023/12/11 08:33:41;;;;;;;5.93;1.60;;;12.80;99.90;;;;;;4975011;28;20174;-66
2023/12/11 08:36:07;;;;;;;6.18;1.70;;;12.80;99.90;;;;;;4983867;28;20211;-68
2023/12/11 08:38:35;;;;;;;5.72;1.30;;;12.80;99.90;;;;;;4982829;28;20207;-69
2023/12/11 08:41:00;;;;;;;10.77;1.80;;;12.90;99.90;;;;;;4991663;28;20274;-71
2023/12/11 08:43:26;;;;;;;8.48;1.92;;;12.90;99.90;;;;;;4974734;28;20394;-66
2023/12/11 08:45:54;;;;;;;7.28;1.83;;;12.90;99.90;;;;;;4975055;28;20176;-69
2023/12/11 08:48:20;;;;;;;8.40;1.63;;;13.00;99.90;;;;;;5007516;28;20176;-70
2023/12/11 08:50:52;;;;;;;8.95;2.25;;;13.00;99.90;;;;;;4975135;28;20176;-71
2023/12/11 08:53:20;;;;;;;4.03;1.48;;;13.10;99.90;;;;;;4975148;28;20183;-69
2023/12/11 08:55:47;;;;;;;11.35;1.98;;;13.10;99.90;;;;;;4955589;29;20201;-70
2023/12/11 08:58:12;;;;;;;8.27;1.88;;;13.10;99.90;;;;;;4968544;28;20203;-71
2023/12/11 09:00:40;;;;;;;8.13;1.70;;;13.20;99.90;;;;;;4975085;28;20180;-67
2023/12/11 09:03:08;;;;;;;9.00;1.88;;;13.30;99.90;;;;;;4974513;28;20196;-69
2023/12/11 09:05:38;;;;;;;7.70;1.90;;;13.30;99.90;;;;;;4974861;28;20176;-67
2023/12/11 09:08:04;;;;;;;9.23;2.15;;;13.30;99.90;;;;;;4974872;28;20200;-69
2023/12/11 09:10:30;;;;;;;10.88;1.90;;;13.30;99.90;;;;;;4974733;28;20203;-69
2023/12/11 09:12:59;;;;;;;8.13;1.85;;;13.30;99.90;;;;;;4974871;28;20187;-68
2023/12/11 09:15:27;;;;;;;8.77;2.03;;;13.40;99.90;;;;;;4974915;28;20190;-69
2023/12/11 09:17:55;;;;;;;8.13;1.70;;;13.40;99.90;;;;;;5007616;28;20200;-71
2023/12/11 09:20:20;;;;;;;5.53;1.70;;;13.40;99.90;;;;;;4994895;28;20194;-70
2023/12/11 09:22:47;;;;;;;9.27;2.30;;;13.40;99.90;;;;;;4984191;28;20205;-70
2023/12/11 09:25:13;;;;;;;6.93;1.85;;;13.40;99.90;;;;;;4972233;28;20175;-70
2023/12/11 09:27:39;;;;;;;4.93;1.70;;;13.40;99.90;;;;;;4990907;28;20405;-71
2023/12/11 09:30:12;;;;;;;9.07;2.08;;;13.40;99.90;;;;;;4978378;28;20227;-71
2023/12/11 09:32:38;;;;;;;8.90;2.20;;;13.40;99.90;;;;;;4978537;28;20180;-70
2023/12/11 09:35:04;;;;;;;9.70;2.17;;;13.40;99.90;;;;;;4978586;28;20189;-71
2023/12/11 09:37:30;;;;;;;5.00;1.42;;;13.50;99.90;;;;;;4973743;28;20211;-71
2023/12/11 09:39:56;;;;;;;5.43;1.60;;;13.50;99.90;;;;;;4979090;28;20199;-63
2023/12/11 09:42:24;;;;;;;7.00;1.60;;;13.50;99.90;;;;;;4978415;28;20186;-63
2023/12/11 09:44:53;;;;;;;6.47;1.90;;;13.50;99.90;;;;;;4978494;28;20187;-63
2023/12/11 09:47:52;;;;;;;6.88;1.77;;;13.50;99.90;;;;;;4978394;28;20180;-63
2023/12/11 09:50:20;;;;;;;7.85;1.90;;;13.50;99.90;;;;;;4973755;28;20211;-64
2023/12/11 09:52:46;;;;;;;7.53;1.73;;;13.50;99.90;;;;;;4978444;28;20180;-65
2023/12/11 09:55:12;;;;;;;7.28;1.95;;;13.50;99.90;;;;;;4978204;28;20176;-65
2023/12/11 09:57:41;;;;;;;4.88;1.50;;;13.60;99.90;;;;;;4978277;28;20196;-64
2023/12/11 10:00:09;;;;;;;6.40;1.88;;;13.60;99.90;;;;;;4978652;28;20191;-65
2023/12/11 10:02:37;;;;;;;5.40;1.40;;;13.60;99.90;;;;;;4978796;28;20340;-64
2023/12/11 10:05:08;;;;;;;6.82;1.50;;;13.60;99.90;;;;;;4978081;28;20183;-65
2023/12/11 10:07:38;;;;;;;6.35;1.70;;;13.60;99.90;;;;;;5010613;28;20195;-65
2023/12/11 10:10:31;;;;;;;6.60;1.75;;;13.60;99.90;;;;;;4978001;28;20204;-64
2023/12/11 10:12:58;;;;;;;5.80;1.38;;;13.60;99.90;;;;;;4978141;28;20250;-65
2023/12/11 10:15:27;;;;;;;4.38;1.25;;;13.60;99.90;;;;;;4977716;28;20192;-65
2023/12/11 10:18:06;;;;;;;4.97;1.63;;;13.60;99.90;;;;;;4984944;28;20203;-67
2023/12/11 10:20:33;;;;;;;5.30;1.40;;;13.60;99.90;;;;;;4997300;28;20175;-67
2023/12/11 10:23:17;;;;;;;6.00;1.70;;;13.60;99.90;;;;;;4997433;28;20514;-65
2023/12/11 10:25:47;;;;;;;4.78;1.17;;;13.60;99.90;;;;;;4996995;28;20198;-65
2023/12/11 10:28:18;;;;;;;5.47;1.52;;;13.60;99.90;;;;;;4978108;28;20322;-65
2023/12/11 10:30:49;;;;;;;7.28;1.88;;;13.60;99.90;;;;;;4977423;28;20200;-65
2023/12/11 10:33:16;;;;;;;6.88;1.70;;;13.60;99.90;;;;;;4976453;28;20179;-66
2023/12/11 10:35:41;;;;;;;7.00;1.70;;;13.60;99.90;;;;;;4977413;28;20186;-64
2023/12/11 10:38:07;;;;;;;6.03;1.40;;;13.60;99.90;;;;;;4977318;28;20208;-65
2023/12/11 10:40:41;;;;;;;8.00;1.73;;;13.50;99.90;;;;;;4977412;28;20199;-65
2023/12/11 10:43:07;;;;;;;6.57;1.65;;;13.60;99.90;;;;;;4958133;29;20236;-65
2023/12/11 10:45:33;;;;;;;8.40;1.55;;;13.60;99.90;;;;;;4967959;28;20263;-66
2023/12/11 10:48:00;;;;;;;8.30;1.95;;;13.60;99.90;;;;;;4977038;28;20283;-64
2023/12/11 10:50:27;;;;;;;9.10;1.90;;;13.50;99.90;;;;;;4977163;28;20338;-65
2023/12/11 10:52:53;;;;;;;9.68;2.00;;;13.50;99.90;;;;;;4977148;28;20194;-65
2023/12/11 10:55:19;;;;;;;6.30;1.90;;;13.50;99.90;;;;;;4977318;28;20173;-66
2023/12/11 10:57:46;;;;;;;7.32;1.73;;;13.50;99.90;;;;;;4977071;28;20212;-64
2023/12/11 11:00:20;;;;;;;3.95;1.73;;;13.50;99.90;;;;;;4976974;28;20266;-64
2023/12/11 11:02:51;;;;;;;6.03;1.65;;;13.40;99.90;;;;;;4969236;28;20196;-64
2023/12/11 11:05:22;;;;;;;3.85;1.48;;;13.40;99.90;;;;;;4976882;28;20216;-64
2023/12/11 11:08:11;;;;;;;5.78;1.80;;;13.40;99.90;;;;;;4977092;28;20180;-64
2023/12/11 11:10:49;;;;;;;7.78;1.70;;;13.40;99.90;;;;;;4973447;28;20225;-66
2023/12/11 11:13:21;;;;;;;7.05;1.90;;;13.40;99.90;;;;;;4980800;28;20179;-65
2023/12/11 11:16:00;;;;;;;7.18;2.00;;;13.50;99.90;;;;;;4976947;28;20260;-64
2023/12/11 11:18:26;;;;;;;6.25;1.42;;;13.50;99.90;;;;;;4976523;28;20215;-64
2023/12/11 11:21:18;;;;;;;9.02;1.55;;;13.40;99.90;;;;;;4976849;28;20271;-64
2023/12/11 11:23:46;;;;;;;10.77;2.05;;;13.40;99.90;;;;;;4975364;28;20204;-64
2023/12/11 11:26:33;;;;;;;5.57;1.42;;;13.40;99.90;;;;;;4984702;28;20186;-64
2023/12/11 11:29:00;;;;;;;4.95;1.63;;;13.40;99.90;;;;;;4976831;28;20184;-65
2023/12/11 11:31:54;;;;;;;7.60;1.80;;;13.50;99.90;;;;;;4976510;28;20203;-64
2023/12/11 11:34:41;;;;;;;5.63;1.45;;;13.50;99.90;;;;;;4976721;28;20176;-64
2023/12/11 11:37:17;;;;;;;5.43;1.50;;;13.50;99.90;;;;;;4976579;28;20180;-64
2023/12/11 11:40:00;;;;;;;6.03;1.55;;;13.50;99.90;;;;;;4976330;28;20183;-65
2023/12/11 11:42:31;;;;;;;3.53;1.25;;;13.50;99.90;;;;;;4976310;28;20183;-64
2023/12/11 11:45:02;;;;;;;7.60;1.42;;;13.50;99.90;;;;;;4976145;28;20200;-64
2023/12/11 11:47:31;;;;;;;4.72;1.50;;;13.50;99.90;;;;;;4976004;28;20184;-64
2023/12/11 11:50:06;;;;;;;4.82;1.45;;;13.50;99.90;;;;;;4976284;28;20203;-63
2023/12/11 11:52:32;;;;;;;3.42;1.50;;;13.60;99.90;;;;;;4975795;28;20294;-65
2023/12/11 11:55:25;;;;;;;5.20;1.63;;;13.60;99.90;;;;;;4975857;28;20267;-63
2023/12/11 11:57:53;;;;;;;6.20;2.20;;;13.60;99.90;;;;;;4968546;28;20192;-64
2023/12/11 12:00:31;;;;;;;6.35;1.25;;;13.60;99.90;;;;;;4975791;28;20226;-65
2023/12/11 12:03:03;;;;;;;5.32;1.30;;;13.60;99.90;;;;;;4977916;28;20180;-63
2023/12/11 12:05:29;;;;;;;4.30;1.40;;;13.60;99.90;;;;;;4975739;28;20192;-65
2023/12/11 12:07:57;;;;;;;6.28;1.50;;;13.70;99.90;;;;;;4975738;28;20191;-65
2023/12/11 12:10:27;;;;;;;5.50;1.70;;;13.60;99.90;;;;;;4975406;28;20187;-66
2023/12/11 12:12:59;;;;;;;5.57;1.15;;;13.70;99.90;;;;;;4975722;28;20211;-66
2023/12/11 12:15:27;;;;;;;4.57;1.60;;;13.70;99.90;;;;;;4975682;28;20188;-67
2023/12/11 12:17:53;;;;;;;4.68;1.40;;;13.80;99.90;;;;;;4975472;28;20266;-65
2023/12/11 12:20:20;;;;;;;5.25;1.52;;;13.80;99.90;;;;;;4975550;28;20230;-65
2023/12/11 12:22:54;;;;;;;3.75;1.50;;;13.80;99.90;;;;;;4976498;28;20188;-66
2023/12/11 12:25:20;;;;;;;5.35;1.98;;;13.90;99.90;;;;;;4975341;28;20191;-65
2023/12/11 12:27:48;;;;;;;7.22;1.75;;;13.90;99.90;;;;;;4975585;28;20319;-67
2023/12/11 12:30:14;;;;;;;9.65;1.98;;;14.00;99.90;;;;;;4975494;28;20271;-67
2023/12/11 12:32:39;;;;;;;5.00;1.65;;;14.20;99.90;;;;;;4975373;28;20210;-66
2023/12/11 12:35:07;;;;;;;4.63;1.45;;;14.10;99.90;;;;;;4975232;28;20180;-66
2023/12/11 12:37:33;;;;;;;4.40;1.52;;;14.00;99.90;;;;;;4975141;28;20191;-65
2023/12/11 12:39:58;;;;;;;6.55;1.63;;;14.10;99.90;;;;;;4975023;28;20200;-65
2023/12/11 12:42:35;;;;;;;4.38;1.38;;;14.10;99.90;;;;;;4975258;28;20211;-66
2023/12/11 12:45:02;;;;;;;6.43;1.50;;;14.10;99.90;;;;;;4975295;28;20168;-66
2023/12/11 12:47:27;;;;;;;6.93;1.63;;;14.10;99.90;;;;;;4975101;28;20307;-65
2023/12/11 12:49:55;;;;;;;5.00;1.70;;;14.10;99.90;;;;;;4975240;28;20234;-65